sensor_id;sensor_type;location;lat;lon;timestamp;pressure;altitude;pressure_sealevel;temperature;humidity
28588;BME280;15787;49.662;10.162;2023-05-07T00:01:05;99105.50;;;13.82;100.00
28588;BME280;15787;49.662;10.162;2023-05-07T00:03:38;99101.75;;;13.98;100.00
28588;BME280;15787;49.662;10.162;2023-05-07T00:06:11;99104.03;;;13.90;100.00
28588;BME280;15787;49.662;10.162;2023-05-07T00:08:44;99106.06;;;13.77;100.00
28588;BME280;15787;49.662;10.162;2023-05-07T00:11:18;99108.09;;;13.64;100.00
28588;BME280;15787;49.662;10.162;2023-05-07T00:13:51;99098.72;;;13.92;100.00
28588;BME280;15787;49.662;10.162;2023-05-07T00:16:24;99095.03;;;13.96;100.00
28588;BME280;15787;49.662;10.162;2023-05-07T00:18:57;99107.84;;;13.71;100.00
28588;BME280;15787;49.662;10.162;2023-05-07T00:21:33;99102.59;;;13.61;100.00
28588;BME280;15787;49.662;10.162;2023-05-07T00:24:07;99094.84;;;13.77;100.00
28588;BME280;15787;49.662;10.162;2023-05-07T00:26:41;99107.94;;;13.68;100.00
28588;BME280;15787;49.662;10.162;2023-05-07T00:29:14;99108.75;;;13.68;100.00
28588;BME280;15787;49.662;10.162;2023-05-07T00:31:49;99111.88;;;13.70;100.00
28588;BME280;15787;49.662;10.162;2023-05-07T00:34:22;99108.75;;;13.56;100.00
28588;BME280;15787;49.662;10.162;2023-05-07T00:36:55;99106.19;;;13.61;100.00
28588;BME280;15787;49.662;10.162;2023-05-07T00:39:28;99102.38;;;13.43;100.00
28588;BME280;15787;49.662;10.162;2023-05-07T00:42:02;99101.94;;;13.32;100.00
28588;BME280;15787;49.662;10.162;2023-05-07T00:44:35;99098.22;;;13.35;100.00
28588;BME280;15787;49.662;10.162;2023-05-07T00:47:08;99103.69;;;13.13;100.00
28588;BME280;15787;49.662;10.162;2023-05-07T00:49:42;99105.53;;;13.32;100.00
28588;BME280;15787;49.662;10.162;2023-05-07T00:52:17;99098.91;;;13.26;100.00
28588;BME280;15787;49.662;10.162;2023-05-07T00:54:50;99093.94;;;13.30;99.96
28588;BME280;15787;49.662;10.162;2023-05-07T00:57:25;99093.94;;;13.17;99.93
28588;BME280;15787;49.662;10.162;2023-05-07T00:59:58;99092.34;;;13.04;100.00
28588;BME280;15787;49.662;10.162;2023-05-07T01:02:31;99084.13;;;12.97;100.00
28588;BME280;15787;49.662;10.162;2023-05-07T01:05:05;99084.59;;;12.95;100.00
28588;BME280;15787;49.662;10.162;2023-05-07T01:07:42;99085.25;;;12.87;100.00
28588;BME280;15787;49.662;10.162;2023-05-07T01:10:15;99085.56;;;12.76;100.00
28588;BME280;15787;49.662;10.162;2023-05-07T01:12:51;99087.47;;;12.79;100.00
28588;BME280;15787;49.662;10.162;2023-05-07T01:15:25;99085.22;;;12.74;100.00
28588;BME280;15787;49.662;10.162;2023-05-07T01:17:58;99084.63;;;12.66;100.00
28588;BME280;15787;49.662;10.162;2023-05-07T01:20:36;99086.75;;;12.62;100.00
28588;BME280;15787;49.662;10.162;2023-05-07T01:23:11;99088.22;;;12.38;100.00
28588;BME280;15787;49.662;10.162;2023-05-07T01:25:51;99084.00;;;12.46;100.00
28588;BME280;15787;49.662;10.162;2023-05-07T01:28:25;99082.13;;;12.56;100.00
28588;BME280;15787;49.662;10.162;2023-05-07T01:31:03;99088.06;;;12.45;100.00
28588;BME280;15787;49.662;10.162;2023-05-07T01:33:40;99087.66;;;12.59;100.00
28588;BME280;15787;49.662;10.162;2023-05-07T01:36:14;99084.47;;;12.45;100.00
28588;BME280;15787;49.662;10.162;2023-05-07T01:38:50;99076.50;;;12.43;100.00
28588;BME280;15787;49.662;10.162;2023-05-07T01:41:23;99070.41;;;12.32;100.00
28588;BME280;15787;49.662;10.162;2023-05-07T01:43:58;99080.75;;;12.35;100.00
28588;BME280;15787;49.662;10.162;2023-05-07T01:46:32;99078.03;;;12.32;100.00
28588;BME280;15787;49.662;10.162;2023-05-07T01:49:05;99076.50;;;12.15;100.00
28588;BME280;15787;49.662;10.162;2023-05-07T01:51:39;99072.88;;;12.30;100.00
28588;BME280;15787;49.662;10.162;2023-05-07T01:54:13;99074.06;;;12.17;100.00
28588;BME280;15787;49.662;10.162;2023-05-07T01:56:47;99068.25;;;12.24;100.00
28588;BME280;15787;49.662;10.162;2023-05-07T01:59:20;99076.38;;;12.18;100.00
28588;BME280;15787;49.662;10.162;2023-05-07T02:01:53;99080.63;;;12.10;100.00
28588;BME280;15787;49.662;10.162;2023-05-07T02:04:26;99074.94;;;12.14;100.00
28588;BME280;15787;49.662;10.162;2023-05-07T02:06:59;99069.44;;;12.10;100.00
28588;BME280;15787;49.662;10.162;2023-05-07T02:09:35;99078.47;;;12.01;100.00
28588;BME280;15787;49.662;10.162;2023-05-07T02:12:08;99072.69;;;11.92;99.72
28588;BME280;15787;49.662;10.162;2023-05-07T02:14:42;99077.00;;;11.81;100.00
28588;BME280;15787;49.662;10.162;2023-05-07T02:17:15;99081.19;;;11.73;100.00
28588;BME280;15787;49.662;10.162;2023-05-07T02:19:48;99078.38;;;11.73;100.00
28588;BME280;15787;49.662;10.162;2023-05-07T02:22:21;99075.25;;;11.71;100.00
28588;BME280;15787;49.662;10.162;2023-05-07T02:24:55;99079.97;;;11.74;100.00
28588;BME280;15787;49.662;10.162;2023-05-07T02:27:28;99080.06;;;11.86;100.00
28588;BME280;15787;49.662;10.162;2023-05-07T02:30:01;99079.25;;;12.02;100.00
28588;BME280;15787;49.662;10.162;2023-05-07T02:32:34;99080.53;;;12.14;100.00
28588;BME280;15787;49.662;10.162;2023-05-07T02:35:08;99074.50;;;12.15;100.00
28588;BME280;15787;49.662;10.162;2023-05-07T02:37:41;99073.97;;;12.20;100.00
28588;BME280;15787;49.662;10.162;2023-05-07T02:40:15;99069.25;;;12.17;100.00
28588;BME280;15787;49.662;10.162;2023-05-07T02:42:48;99073.97;;;12.20;100.00
28588;BME280;15787;49.662;10.162;2023-05-07T02:45:21;99077.59;;;12.04;100.00
28588;BME280;15787;49.662;10.162;2023-05-07T02:47:56;99070.13;;;12.14;100.00
28588;BME280;15787;49.662;10.162;2023-05-07T02:50:30;99074.59;;;12.12;100.00
28588;BME280;15787;49.662;10.162;2023-05-07T02:53:03;99079.72;;;12.13;100.00
28588;BME280;15787;49.662;10.162;2023-05-07T02:55:38;99077.19;;;12.19;100.00
28588;BME280;15787;49.662;10.162;2023-05-07T02:58:11;99067.28;;;12.30;100.00
28588;BME280;15787;49.662;10.162;2023-05-07T03:00:45;99078.03;;;12.32;100.00
28588;BME280;15787;49.662;10.162;2023-05-07T03:03:32;99069.34;;;12.42;100.00
28588;BME280;15787;49.662;10.162;2023-05-07T03:06:05;99069.03;;;12.53;100.00
28588;BME280;15787;49.662;10.162;2023-05-07T03:08:39;99074.63;;;12.53;100.00
28588;BME280;15787;49.662;10.162;2023-05-07T03:11:13;99071.88;;;12.65;100.00
28588;BME280;15787;49.662;10.162;2023-05-07T03:13:46;99075.84;;;12.52;100.00
28588;BME280;15787;49.662;10.162;2023-05-07T03:16:23;99073.22;;;12.32;100.00
28588;BME280;15787;49.662;10.162;2023-05-07T03:18:56;99083.09;;;12.37;100.00
28588;BME280;15787;49.662;10.162;2023-05-07T03:21:29;99085.63;;;12.31;100.00
28588;BME280;15787;49.662;10.162;2023-05-07T03:24:05;99084.75;;;12.63;100.00
28588;BME280;15787;49.662;10.162;2023-05-07T03:26:39;99081.59;;;12.61;100.00
28588;BME280;15787;49.662;10.162;2023-05-07T03:29:13;99086.03;;;12.46;100.00
28588;BME280;15787;49.662;10.162;2023-05-07T03:31:52;99076.81;;;12.33;100.00
28588;BME280;15787;49.662;10.162;2023-05-07T03:34:25;99077.44;;;12.24;100.00
28588;BME280;15787;49.662;10.162;2023-05-07T03:36:58;99082.94;;;12.28;100.00
28588;BME280;15787;49.662;10.162;2023-05-07T03:39:31;99090.97;;;12.26;100.00
28588;BME280;15787;49.662;10.162;2023-05-07T03:42:06;99095.72;;;12.29;100.00
28588;BME280;15787;49.662;10.162;2023-05-07T03:44:39;99095.09;;;12.37;100.00
28588;BME280;15787;49.662;10.162;2023-05-07T03:47:13;99103.47;;;12.37;100.00
28588;BME280;15787;49.662;10.162;2023-05-07T03:49:46;99102.75;;;12.49;100.00
28588;BME280;15787;49.662;10.162;2023-05-07T03:52:21;99102.59;;;12.40;100.00
28588;BME280;15787;49.662;10.162;2023-05-07T03:55:00;99112.47;;;12.74;100.00
28588;BME280;15787;49.662;10.162;2023-05-07T03:57:38;99112.53;;;12.57;100.00
28588;BME280;15787;49.662;10.162;2023-05-07T04:00:13;99110.34;;;12.78;100.00
28588;BME280;15787;49.662;10.162;2023-05-07T04:02:52;99109.50;;;12.64;100.00
28588;BME280;15787;49.662;10.162;2023-05-07T04:05:31;99122.09;;;12.73;100.00
28588;BME280;15787;49.662;10.162;2023-05-07T04:08:07;99117.38;;;12.69;100.00
28588;BME280;15787;49.662;10.162;2023-05-07T04:10:43;99118.19;;;12.83;100.00
28588;BME280;15787;49.662;10.162;2023-05-07T04:13:19;99134.91;;;12.86;100.00
28588;BME280;15787;49.662;10.162;2023-05-07T04:15:52;99128.31;;;12.93;100.00
28588;BME280;15787;49.662;10.162;2023-05-07T04:18:25;99134.75;;;12.77;100.00
28588;BME280;15787;49.662;10.162;2023-05-07T04:20:59;99119.78;;;12.84;100.00
28588;BME280;15787;49.662;10.162;2023-05-07T04:23:32;99129.28;;;12.74;100.00
28588;BME280;15787;49.662;10.162;2023-05-07T04:26:07;99123.25;;;12.88;100.00
28588;BME280;15787;49.662;10.162;2023-05-07T04:28:45;99123.41;;;13.09;100.00
28588;BME280;15787;49.662;10.162;2023-05-07T04:31:19;99122.22;;;13.23;100.00
28588;BME280;15787;49.662;10.162;2023-05-07T04:33:56;99123.00;;;13.23;100.00
28588;BME280;15787;49.662;10.162;2023-05-07T04:36:30;99114.91;;;13.13;100.00
28588;BME280;15787;49.662;10.162;2023-05-07T04:39:08;99124.28;;;12.94;100.00
28588;BME280;15787;49.662;10.162;2023-05-07T04:41:44;99123.03;;;12.95;100.00
28588;BME280;15787;49.662;10.162;2023-05-07T04:44:19;99116.59;;;13.10;100.00
28588;BME280;15787;49.662;10.162;2023-05-07T04:46:52;99122.88;;;13.14;100.00
28588;BME280;15787;49.662;10.162;2023-05-07T04:49:26;99129.84;;;13.35;100.00
28588;BME280;15787;49.662;10.162;2023-05-07T04:52:00;99129.53;;;13.58;100.00
28588;BME280;15787;49.662;10.162;2023-05-07T04:54:33;99135.03;;;13.62;100.00
28588;BME280;15787;49.662;10.162;2023-05-07T04:57:06;99131.53;;;13.45;100.00
28588;BME280;15787;49.662;10.162;2023-05-07T04:59:41;99136.47;;;13.79;100.00
28588;BME280;15787;49.662;10.162;2023-05-07T05:02:14;99136.13;;;13.89;100.00
28588;BME280;15787;49.662;10.162;2023-05-07T05:04:51;99138.28;;;13.85;100.00
28588;BME280;15787;49.662;10.162;2023-05-07T05:07:24;99146.56;;;13.76;100.00
28588;BME280;15787;49.662;10.162;2023-05-07T05:09:57;99149.72;;;13.78;100.00
28588;BME280;15787;49.662;10.162;2023-05-07T05:12:30;99139.94;;;13.96;100.00
28588;BME280;15787;49.662;10.162;2023-05-07T05:15:08;99156.09;;;13.91;100.00
28588;BME280;15787;49.662;10.162;2023-05-07T05:17:42;99160.34;;;13.96;100.00
28588;BME280;15787;49.662;10.162;2023-05-07T05:20:16;99152.66;;;14.22;100.00
28588;BME280;15787;49.662;10.162;2023-05-07T05:22:49;99144.97;;;14.13;100.00
28588;BME280;15787;49.662;10.162;2023-05-07T05:25:23;99149.59;;;13.82;100.00
28588;BME280;15787;49.662;10.162;2023-05-07T05:27:56;99136.81;;;14.40;100.00
28588;BME280;15787;49.662;10.162;2023-05-07T05:30:31;99145.41;;;14.59;97.92
28588;BME280;15787;49.662;10.162;2023-05-07T05:33:04;99153.09;;;14.67;94.88
28588;BME280;15787;49.662;10.162;2023-05-07T05:35:37;99133.56;;;14.85;93.54
28588;BME280;15787;49.662;10.162;2023-05-07T05:38:15;99147.09;;;14.78;93.34
28588;BME280;15787;49.662;10.162;2023-05-07T05:40:48;99146.50;;;14.83;94.10
28588;BME280;15787;49.662;10.162;2023-05-07T05:43:22;99147.56;;;14.76;93.37
28588;BME280;15787;49.662;10.162;2023-05-07T05:45:57;99140.00;;;15.07;92.90
28588;BME280;15787;49.662;10.162;2023-05-07T05:48:30;99137.56;;;14.97;92.44
28588;BME280;15787;49.662;10.162;2023-05-07T05:51:05;99135.41;;;15.01;93.01
28588;BME280;15787;49.662;10.162;2023-05-07T05:53:38;99150.38;;;14.98;92.42
28588;BME280;15787;49.662;10.162;2023-05-07T05:56:12;99146.38;;;15.08;91.35
28588;BME280;15787;49.662;10.162;2023-05-07T05:58:46;99143.72;;;15.04;91.95
28588;BME280;15787;49.662;10.162;2023-05-07T06:01:20;99147.09;;;15.21;91.03
28588;BME280;15787;49.662;10.162;2023-05-07T06:03:55;99152.59;;;15.03;91.17
28588;BME280;15787;49.662;10.162;2023-05-07T06:06:29;99152.16;;;15.04;91.48
28588;BME280;15787;49.662;10.162;2023-05-07T06:09:03;99152.41;;;14.97;91.65
28588;BME280;15787;49.662;10.162;2023-05-07T06:11:42;99164.16;;;15.27;91.27
28588;BME280;15787;49.662;10.162;2023-05-07T06:14:17;99169.00;;;15.26;91.71
28588;BME280;15787;49.662;10.162;2023-05-07T06:16:51;99174.06;;;15.09;91.38
28588;BME280;15787;49.662;10.162;2023-05-07T06:19:25;99170.19;;;15.16;89.94
28588;BME280;15787;49.662;10.162;2023-05-07T06:22:01;99175.81;;;15.16;90.84
28588;BME280;15787;49.662;10.162;2023-05-07T06:24:36;99184.22;;;15.38;89.89
28588;BME280;15787;49.662;10.162;2023-05-07T06:27:10;99184.19;;;15.50;89.67
28588;BME280;15787;49.662;10.162;2023-05-07T06:29:44;99186.53;;;15.52;88.96
28588;BME280;15787;49.662;10.162;2023-05-07T06:32:21;99184.28;;;15.77;88.35
28588;BME280;15787;49.662;10.162;2023-05-07T06:34:55;99187.28;;;15.83;88.46
28588;BME280;15787;49.662;10.162;2023-05-07T06:37:28;99186.38;;;15.86;88.41
28588;BME280;15787;49.662;10.162;2023-05-07T06:40:07;99196.56;;;16.02;88.42
28588;BME280;15787;49.662;10.162;2023-05-07T06:42:43;99187.75;;;16.30;87.29
28588;BME280;15787;49.662;10.162;2023-05-07T06:45:34;99201.84;;;16.30;85.69
28588;BME280;15787;49.662;10.162;2023-05-07T06:48:10;99197.44;;;16.20;85.46
28588;BME280;15787;49.662;10.162;2023-05-07T06:50:53;99192.56;;;16.12;85.82
28588;BME280;15787;49.662;10.162;2023-05-07T06:53:29;99195.88;;;16.19;85.86
28588;BME280;15787;49.662;10.162;2023-05-07T06:56:05;99197.28;;;16.24;84.83
28588;BME280;15787;49.662;10.162;2023-05-07T06:58:38;99192.59;;;16.30;85.00
28588;BME280;15787;49.662;10.162;2023-05-07T07:01:12;99196.06;;;16.34;84.96
28588;BME280;15787;49.662;10.162;2023-05-07T07:03:48;99195.13;;;16.37;85.01
28588;BME280;15787;49.662;10.162;2023-05-07T07:06:24;99190.78;;;17.08;84.81
28588;BME280;15787;49.662;10.162;2023-05-07T07:08:58;99195.47;;;17.30;82.98
28588;BME280;15787;49.662;10.162;2023-05-07T07:11:31;99202.66;;;17.40;82.39
28588;BME280;15787;49.662;10.162;2023-05-07T07:14:04;99195.34;;;17.15;82.56
28588;BME280;15787;49.662;10.162;2023-05-07T07:16:43;99191.84;;;17.29;80.63
28588;BME280;15787;49.662;10.162;2023-05-07T07:19:20;99194.47;;;17.69;81.59
28588;BME280;15787;49.662;10.162;2023-05-07T07:21:56;99203.16;;;17.20;80.85
28588;BME280;15787;49.662;10.162;2023-05-07T07:24:32;99202.50;;;17.52;79.89
28588;BME280;15787;49.662;10.162;2023-05-07T07:27:09;99205.97;;;17.56;81.45
28588;BME280;15787;49.662;10.162;2023-05-07T07:29:43;99211.13;;;18.00;77.86
28588;BME280;15787;49.662;10.162;2023-05-07T07:32:16;99204.44;;;17.88;78.42
28588;BME280;15787;49.662;10.162;2023-05-07T07:34:51;99202.78;;;18.05;78.73
28588;BME280;15787;49.662;10.162;2023-05-07T07:37:25;99207.28;;;18.45;76.90
28588;BME280;15787;49.662;10.162;2023-05-07T07:39:59;99199.94;;;18.38;77.71
28588;BME280;15787;49.662;10.162;2023-05-07T07:42:32;99200.31;;;18.55;75.88
28588;BME280;15787;49.662;10.162;2023-05-07T07:45:07;99193.50;;;18.61;76.84
28588;BME280;15787;49.662;10.162;2023-05-07T07:47:44;99193.94;;;18.69;77.24
28588;BME280;15787;49.662;10.162;2023-05-07T07:50:19;99196.66;;;18.63;77.02
28588;BME280;15787;49.662;10.162;2023-05-07T07:53:13;99198.75;;;18.54;76.88
28588;BME280;15787;49.662;10.162;2023-05-07T07:55:46;99203.84;;;18.41;76.15
28588;BME280;15787;49.662;10.162;2023-05-07T07:58:23;99208.41;;;18.71;75.11
28588;BME280;15787;49.662;10.162;2023-05-07T08:00:57;99214.38;;;18.87;76.71
28588;BME280;15787;49.662;10.162;2023-05-07T08:03:30;99214.09;;;18.85;75.10
28588;BME280;15787;49.662;10.162;2023-05-07T08:06:07;99207.13;;;19.25;76.29
28588;BME280;15787;49.662;10.162;2023-05-07T08:08:41;99209.25;;;19.39;74.83
28588;BME280;15787;49.662;10.162;2023-05-07T08:11:17;99218.53;;;19.01;74.25
28588;BME280;15787;49.662;10.162;2023-05-07T08:14:02;99205.63;;;19.00;75.78
28588;BME280;15787;49.662;10.162;2023-05-07T08:16:36;99209.53;;;19.70;74.50
28588;BME280;15787;49.662;10.162;2023-05-07T08:19:15;99209.06;;;20.36;73.07
28588;BME280;15787;49.662;10.162;2023-05-07T08:21:50;99211.91;;;20.06;72.60
28588;BME280;15787;49.662;10.162;2023-05-07T08:24:24;99210.50;;;20.66;71.63
28588;BME280;15787;49.662;10.162;2023-05-07T08:26:57;99215.63;;;20.82;70.38
28588;BME280;15787;49.662;10.162;2023-05-07T08:29:30;99209.50;;;20.69;69.69
28588;BME280;15787;49.662;10.162;2023-05-07T08:32:04;99214.94;;;20.17;71.08
28588;BME280;15787;49.662;10.162;2023-05-07T08:34:37;99209.00;;;20.70;70.47
28588;BME280;15787;49.662;10.162;2023-05-07T08:37:12;99201.28;;;20.71;71.22
28588;BME280;15787;49.662;10.162;2023-05-07T08:39:45;99200.69;;;20.47;70.86
28588;BME280;15787;49.662;10.162;2023-05-07T08:42:24;99195.09;;;20.72;71.77
28588;BME280;15787;49.662;10.162;2023-05-07T08:44:58;99202.47;;;21.05;68.67
28588;BME280;15787;49.662;10.162;2023-05-07T08:47:40;99194.91;;;20.56;71.14
28588;BME280;15787;49.662;10.162;2023-05-07T08:50:14;99197.78;;;21.02;71.04
28588;BME280;15787;49.662;10.162;2023-05-07T08:52:48;99194.59;;;20.94;69.86
28588;BME280;15787;49.662;10.162;2023-05-07T08:55:24;99197.50;;;21.20;68.89
28588;BME280;15787;49.662;10.162;2023-05-07T08:57:57;99197.72;;;21.16;69.94
28588;BME280;15787;49.662;10.162;2023-05-07T09:00:30;99194.59;;;21.14;68.95
28588;BME280;15787;49.662;10.162;2023-05-07T09:03:04;99197.59;;;21.57;67.20
28588;BME280;15787;49.662;10.162;2023-05-07T09:05:37;99197.38;;;21.86;66.55
28588;BME280;15787;49.662;10.162;2023-05-07T09:08:15;99193.53;;;21.89;67.01
28588;BME280;15787;49.662;10.162;2023-05-07T09:10:51;99195.09;;;22.69;67.75
28588;BME280;15787;49.662;10.162;2023-05-07T09:13:27;99195.81;;;22.16;64.56
28588;BME280;15787;49.662;10.162;2023-05-07T09:16:10;99202.03;;;22.20;65.60
28588;BME280;15787;49.662;10.162;2023-05-07T09:18:45;99207.66;;;22.15;66.95
28588;BME280;15787;49.662;10.162;2023-05-07T09:21:20;99210.19;;;22.01;66.11
28588;BME280;15787;49.662;10.162;2023-05-07T09:23:57;99211.97;;;22.84;64.18
28588;BME280;15787;49.662;10.162;2023-05-07T09:26:39;99207.72;;;22.20;64.21
28588;BME280;15787;49.662;10.162;2023-05-07T09:29:12;99206.88;;;22.51;66.22
28588;BME280;15787;49.662;10.162;2023-05-07T09:31:45;99194.34;;;22.74;63.92
28588;BME280;15787;49.662;10.162;2023-05-07T09:34:21;99192.88;;;22.95;66.07
28588;BME280;15787;49.662;10.162;2023-05-07T09:36:54;99189.84;;;23.26;65.20
28588;BME280;15787;49.662;10.162;2023-05-07T09:39:39;99187.88;;;23.66;62.06
28588;BME280;15787;49.662;10.162;2023-05-07T09:42:14;99192.03;;;23.76;64.06
28588;BME280;15787;49.662;10.162;2023-05-07T09:44:47;99201.31;;;22.73;61.36
28588;BME280;15787;49.662;10.162;2023-05-07T09:47:24;99207.84;;;22.85;61.15
28588;BME280;15787;49.662;10.162;2023-05-07T09:49:59;99200.59;;;23.87;62.74
28588;BME280;15787;49.662;10.162;2023-05-07T09:52:34;99211.19;;;23.48;61.53
28588;BME280;15787;49.662;10.162;2023-05-07T09:55:11;99191.59;;;24.90;60.61
28588;BME280;15787;49.662;10.162;2023-05-07T09:57:46;99187.41;;;24.97;59.56
28588;BME280;15787;49.662;10.162;2023-05-07T10:00:20;99186.97;;;24.76;57.37
28588;BME280;15787;49.662;10.162;2023-05-07T10:02:57;99176.50;;;23.71;59.40
28588;BME280;15787;49.662;10.162;2023-05-07T10:05:41;99189.44;;;24.28;59.76
28588;BME280;15787;49.662;10.162;2023-05-07T10:08:17;99186.84;;;24.02;59.56
28588;BME280;15787;49.662;10.162;2023-05-07T10:10:55;99183.75;;;24.11;58.56
28588;BME280;15787;49.662;10.162;2023-05-07T10:13:31;99179.84;;;24.20;60.12
28588;BME280;15787;49.662;10.162;2023-05-07T10:16:04;99180.53;;;24.53;58.01
28588;BME280;15787;49.662;10.162;2023-05-07T10:18:44;99177.44;;;23.29;58.86
28588;BME280;15787;49.662;10.162;2023-05-07T10:21:23;99173.75;;;23.07;62.82
28588;BME280;15787;49.662;10.162;2023-05-07T10:24:04;99171.44;;;23.11;63.36
28588;BME280;15787;49.662;10.162;2023-05-07T10:26:42;99168.97;;;23.68;61.76
28588;BME280;15787;49.662;10.162;2023-05-07T10:29:24;99176.72;;;23.46;61.61
28588;BME280;15787;49.662;10.162;2023-05-07T10:32:14;99165.59;;;23.75;62.39
28588;BME280;15787;49.662;10.162;2023-05-07T10:34:54;99158.59;;;23.99;61.76
28588;BME280;15787;49.662;10.162;2023-05-07T10:37:30;99164.81;;;23.86;62.13
28588;BME280;15787;49.662;10.162;2023-05-07T10:40:05;99161.94;;;24.25;59.85
28588;BME280;15787;49.662;10.162;2023-05-07T10:42:53;99168.84;;;24.63;59.54
28588;BME280;15787;49.662;10.162;2023-05-07T10:45:27;99157.50;;;25.09;59.52
28588;BME280;15787;49.662;10.162;2023-05-07T10:48:10;99159.88;;;25.46;60.22
28588;BME280;15787;49.662;10.162;2023-05-07T10:50:48;99165.53;;;25.57;56.34
28588;BME280;15787;49.662;10.162;2023-05-07T10:53:25;99155.53;;;25.69;56.35
28588;BME280;15787;49.662;10.162;2023-05-07T10:56:25;99157.53;;;26.09;54.94
28588;BME280;15787;49.662;10.162;2023-05-07T10:59:34;99155.88;;;25.60;56.50
28588;BME280;15787;49.662;10.162;2023-05-07T11:02:21;99149.63;;;25.61;58.37
28588;BME280;15787;49.662;10.162;2023-05-07T11:05:19;99144.31;;;24.95;56.65
28588;BME280;15787;49.662;10.162;2023-05-07T11:08:01;99153.78;;;25.96;57.09
28588;BME280;15787;49.662;10.162;2023-05-07T11:10:49;99154.69;;;24.98;56.95
28588;BME280;15787;49.662;10.162;2023-05-07T11:13:47;99149.34;;;25.24;56.75
28588;BME280;15787;49.662;10.162;2023-05-07T11:16:48;99148.19;;;24.29;56.39
28588;BME280;15787;49.662;10.162;2023-05-07T11:19:49;99133.44;;;25.69;57.31
28588;BME280;15787;49.662;10.162;2023-05-07T11:22:36;99136.09;;;26.46;58.74
28588;BME280;15787;49.662;10.162;2023-05-07T11:25:20;99138.75;;;26.62;56.06
28588;BME280;15787;49.662;10.162;2023-05-07T11:28:13;99133.69;;;25.36;54.24
28588;BME280;15787;49.662;10.162;2023-05-07T11:30:57;99137.03;;;26.05;55.37
28588;BME280;15787;49.662;10.162;2023-05-07T11:33:32;99144.22;;;25.88;54.03
28588;BME280;15787;49.662;10.162;2023-05-07T11:36:08;99147.88;;;26.61;53.33
28588;BME280;15787;49.662;10.162;2023-05-07T11:38:46;99133.91;;;26.33;55.35
28588;BME280;15787;49.662;10.162;2023-05-07T11:41:19;99133.06;;;25.84;54.81
28588;BME280;15787;49.662;10.162;2023-05-07T11:43:54;99136.41;;;26.18;53.48
28588;BME280;15787;49.662;10.162;2023-05-07T11:46:28;99126.47;;;26.19;54.88
28588;BME280;15787;49.662;10.162;2023-05-07T11:49:03;99140.84;;;25.13;54.86
28588;BME280;15787;49.662;10.162;2023-05-07T11:51:36;99133.41;;;25.75;54.98
28588;BME280;15787;49.662;10.162;2023-05-07T11:54:09;99134.78;;;26.22;55.54
28588;BME280;15787;49.662;10.162;2023-05-07T11:56:44;99132.69;;;26.23;50.42
28588;BME280;15787;49.662;10.162;2023-05-07T11:59:18;99130.41;;;26.64;54.24
28588;BME280;15787;49.662;10.162;2023-05-07T12:01:50;99136.88;;;26.65;55.14
28588;BME280;15787;49.662;10.162;2023-05-07T12:04:25;99130.81;;;26.74;53.42
28588;BME280;15787;49.662;10.162;2023-05-07T12:06:58;99133.00;;;27.42;51.33
28588;BME280;15787;49.662;10.162;2023-05-07T12:09:32;99128.53;;;27.10;51.22
28588;BME280;15787;49.662;10.162;2023-05-07T12:12:06;99126.19;;;27.27;51.37
28588;BME280;15787;49.662;10.162;2023-05-07T12:14:39;99121.31;;;27.40;50.61
28588;BME280;15787;49.662;10.162;2023-05-07T12:17:13;99128.69;;;27.17;52.42
28588;BME280;15787;49.662;10.162;2023-05-07T12:19:48;99126.78;;;27.38;52.31
28588;BME280;15787;49.662;10.162;2023-05-07T12:22:22;99127.41;;;27.82;51.93
28588;BME280;15787;49.662;10.162;2023-05-07T12:24:57;99127.44;;;26.94;50.06
28588;BME280;15787;49.662;10.162;2023-05-07T12:27:31;99133.69;;;26.92;50.98
28588;BME280;15787;49.662;10.162;2023-05-07T12:30:04;99123.69;;;26.38;50.11
28588;BME280;15787;49.662;10.162;2023-05-07T12:32:37;99110.69;;;25.53;50.52
28588;BME280;15787;49.662;10.162;2023-05-07T12:35:12;99114.66;;;26.76;52.72
28588;BME280;15787;49.662;10.162;2023-05-07T12:37:54;99110.78;;;26.50;52.40
28588;BME280;15787;49.662;10.162;2023-05-07T12:40:35;99107.94;;;26.68;50.11
28588;BME280;15787;49.662;10.162;2023-05-07T12:43:15;99104.44;;;26.38;50.63
28588;BME280;15787;49.662;10.162;2023-05-07T12:45:49;99109.53;;;26.88;50.52
28588;BME280;15787;49.662;10.162;2023-05-07T12:48:23;99102.50;;;27.08;49.06
28588;BME280;15787;49.662;10.162;2023-05-07T12:51:01;99106.81;;;27.65;48.32
28588;BME280;15787;49.662;10.162;2023-05-07T12:53:40;99098.00;;;27.12;48.64
28588;BME280;15787;49.662;10.162;2023-05-07T12:56:15;99110.00;;;25.41;51.32
28588;BME280;15787;49.662;10.162;2023-05-07T12:58:48;99107.03;;;25.88;50.87
28588;BME280;15787;49.662;10.162;2023-05-07T13:01:21;99099.81;;;26.72;50.78
28588;BME280;15787;49.662;10.162;2023-05-07T13:03:55;99105.13;;;26.87;49.51
28588;BME280;15787;49.662;10.162;2023-05-07T13:06:30;99103.47;;;26.06;47.08
28588;BME280;15787;49.662;10.162;2023-05-07T13:09:04;99100.72;;;26.19;49.58
28588;BME280;15787;49.662;10.162;2023-05-07T13:11:37;99085.34;;;25.33;49.86
28588;BME280;15787;49.662;10.162;2023-05-07T13:14:10;99090.25;;;26.88;51.68
28588;BME280;15787;49.662;10.162;2023-05-07T13:16:42;99091.19;;;27.15;49.37
28588;BME280;15787;49.662;10.162;2023-05-07T13:19:15;99094.31;;;26.13;48.65
28588;BME280;15787;49.662;10.162;2023-05-07T13:21:50;99087.19;;;27.55;47.78
28588;BME280;15787;49.662;10.162;2023-05-07T13:24:23;99096.44;;;27.30;48.08
28588;BME280;15787;49.662;10.162;2023-05-07T13:26:55;99087.69;;;27.86;46.60
28588;BME280;15787;49.662;10.162;2023-05-07T13:29:28;99085.16;;;27.95;47.72